createdAt,value
2018-01-23T00:00:30.054Z,96.12
2018-01-23T00:01:30.021Z,96.31
2018-01-23T00:02:29.991Z,96.03
2018-01-23T00:03:29.966Z,96.22
2018-01-23T00:04:29.940Z,95.84
2018-01-23T00:05:29.914Z,95.75
2018-01-23T00:06:29.884Z,96.12
2018-01-23T00:07:29.855Z,95.75
2018-01-23T00:08:29.832Z,96.22
2018-01-23T00:09:29.799Z,96.12
2018-01-23T00:10:29.795Z,96.41
2018-01-23T00:11:29.755Z,96.03
2018-01-23T00:12:29.746Z,96.03
2018-01-23T00:13:29.702Z,95.94
2018-01-23T00:14:29.664Z,95.84
2018-01-23T00:15:29.630Z,96.12
2018-01-23T00:16:29.617Z,96.31
2018-01-23T00:17:29.589Z,96.31
2018-01-23T00:18:29.601Z,96.41
2018-01-23T00:19:29.530Z,96.12
2018-01-23T00:20:29.498Z,95.84
2018-01-23T00:21:29.482Z,96.12
2018-01-23T00:22:29.445Z,96.03
2018-01-23T00:23:29.435Z,96.03
2018-01-23T00:24:29.390Z,97.27
2018-01-23T00:25:29.356Z,96.22
2018-01-23T00:26:29.332Z,96.88
2018-01-23T00:27:29.931Z,96.22
2018-01-23T00:28:29.284Z,96.22
2018-01-23T00:29:29.290Z,96.03
2018-01-23T00:30:29.228Z,96.79
2018-01-23T00:31:29.215Z,96.31
2018-01-23T00:32:29.172Z,95.84
2018-01-23T00:33:29.151Z,95.94
2018-01-23T00:34:29.131Z,95.94
2018-01-23T00:35:29.092Z,96.03
2018-01-23T00:36:29.056Z,96.12
2018-01-23T00:37:29.034Z,95.94
2018-01-23T00:38:29.023Z,95.84
2018-01-23T00:39:28.995Z,96.88
2018-01-23T00:40:28.943Z,96.22
2018-01-23T00:41:28.923Z,96.12
2018-01-23T00:42:28.889Z,96.31
2018-01-23T00:43:28.868Z,96.41
2018-01-23T00:44:28.861Z,95.84
2018-01-23T00:45:28.855Z,96.22
2018-01-23T00:46:28.793Z,96.03
2018-01-23T00:47:28.762Z,95.84
2018-01-23T00:48:28.739Z,96.03
2018-01-23T00:49:28.706Z,96.22
2018-01-23T00:50:28.685Z,96.22
2018-01-23T00:51:28.686Z,96.03
2018-01-23T00:52:28.639Z,95.84
2018-01-23T00:53:28.616Z,96.03
2018-01-23T00:54:28.578Z,96.98
2018-01-23T00:55:28.539Z,96.88
2018-01-23T00:56:28.522Z,96.12
2018-01-23T00:57:28.494Z,96.12
2018-01-23T00:58:28.457Z,96.22
2018-01-23T00:59:28.439Z,96.12
2018-01-23T01:00:28.401Z,95.94
2018-01-23T01:01:28.389Z,96.03
2018-01-23T01:02:28.350Z,96.31
2018-01-23T01:03:28.337Z,96.03
2018-01-23T01:04:28.319Z,96.03
2018-01-23T01:05:28.959Z,96.12
2018-01-23T01:06:28.246Z,96.03
2018-01-23T01:07:28.223Z,96.22
2018-01-23T01:08:28.180Z,96.03
2018-01-23T01:09:28.158Z,95.84
2018-01-23T01:10:28.126Z,95.84
2018-01-23T01:11:28.103Z,95.65
2018-01-23T01:12:28.086Z,95.94
2018-01-23T01:13:28.038Z,95.75
2018-01-23T01:14:28.022Z,96.22
2018-01-23T01:15:28.010Z,95.75
2018-01-23T01:16:27.966Z,95.94
2018-01-23T01:17:27.945Z,95.75
2018-01-23T01:18:27.924Z,96.12
2018-01-23T01:19:27.880Z,95.84
2018-01-23T01:20:27.863Z,95.84
2018-01-23T01:21:27.823Z,95.84
2018-01-23T01:22:27.799Z,96.79
2018-01-23T01:23:27.790Z,96.69
2018-01-23T01:24:27.750Z,95.94
2018-01-23T01:25:27.717Z,96.60
2018-01-23T01:26:27.702Z,96.22
2018-01-23T01:27:27.669Z,96.88
2018-01-23T01:28:27.636Z,96.79
2018-01-23T01:29:27.605Z,96.41
2018-01-23T01:30:27.577Z,96.50
2018-01-23T01:31:27.562Z,96.22
2018-01-23T01:32:27.518Z,96.03
2018-01-23T01:33:27.522Z,96.22
2018-01-23T01:34:27.494Z,96.31
2018-01-23T01:35:27.438Z,96.12
2018-01-23T01:36:27.430Z,96.03
2018-01-23T01:37:27.391Z,95.94
2018-01-23T01:38:27.379Z,96.41
2018-01-23T01:39:27.348Z,96.41
2018-01-23T01:40:27.307Z,96.88
2018-01-23T01:41:27.305Z,96.79
2018-01-23T01:42:27.265Z,97.45
2018-01-23T01:43:27.228Z,97.07
2018-01-23T01:44:27.198Z,97.36
2018-01-23T01:45:27.183Z,96.98
2018-01-23T01:46:27.138Z,96.60
2018-01-23T01:47:27.133Z,97.17
2018-01-23T01:48:27.090Z,96.22
2018-01-23T01:49:27.059Z,96.22
2018-01-23T01:50:27.037Z,96.88
2018-01-23T01:51:27.011Z,96.69
2018-01-23T01:52:26.980Z,96.79
2018-01-23T01:53:26.950Z,97.17
2018-01-23T01:54:26.927Z,97.27
2018-01-23T01:55:26.902Z,97.74
2018-01-23T01:56:26.871Z,97.92
2018-01-23T01:57:26.840Z,97.27
2018-01-23T01:58:26.811Z,97.74
2018-01-23T01:59:26.792Z,97.07
2018-01-23T02:00:26.762Z,97.17
2018-01-23T02:01:26.737Z,97.17
2018-01-23T02:02:26.700Z,97.55
2018-01-23T02:03:26.683Z,97.83
2018-01-23T02:04:26.652Z,97.55
2018-01-23T02:05:26.613Z,97.92
2018-01-23T02:06:26.600Z,97.64
2018-01-23T02:07:26.565Z,97.74
2018-01-23T02:08:26.538Z,97.74
2018-01-23T02:09:26.522Z,97.64
2018-01-23T02:10:26.516Z,97.55
2018-01-23T02:11:26.480Z,97.64
2018-01-23T02:12:26.439Z,97.74
2018-01-23T02:13:26.400Z,97.27
2018-01-23T02:14:26.381Z,97.17
2018-01-23T02:15:26.343Z,96.98
2018-01-23T02:16:26.334Z,96.98
2018-01-23T02:17:26.286Z,96.88
2018-01-23T02:18:26.285Z,97.92
2018-01-23T02:19:26.256Z,98.02
2018-01-23T02:20:26.223Z,98.59
2018-01-23T02:21:26.193Z,97.55
2018-01-23T02:22:26.153Z,96.88
2018-01-23T02:23:26.136Z,96.79
2018-01-23T02:24:26.124Z,97.17
2018-01-23T02:25:26.082Z,96.69
2018-01-23T02:26:26.034Z,96.79
2018-01-23T02:27:26.013Z,96.79
2018-01-23T02:28:25.988Z,96.79
2018-01-23T02:29:25.955Z,96.88
2018-01-23T02:30:25.927Z,96.88
2018-01-23T02:31:25.911Z,96.88
2018-01-23T02:32:25.895Z,96.79
2018-01-23T02:33:25.847Z,96.98
2018-01-23T02:34:25.821Z,96.98
2018-01-23T02:35:25.795Z,96.31
2018-01-23T02:36:25.779Z,96.31
2018-01-23T02:37:25.745Z,96.12
2018-01-23T02:38:25.741Z,96.31
2018-01-23T02:39:25.678Z,96.03
2018-01-23T02:40:26.453Z,96.22
2018-01-23T02:41:25.650Z,96.03
2018-01-23T02:42:25.605Z,96.31
2018-01-23T02:43:25.570Z,96.22
2018-01-23T02:44:25.552Z,96.50
2018-01-23T02:45:25.563Z,96.03
2018-01-23T02:46:25.503Z,96.22
2018-01-23T02:47:25.464Z,96.22
2018-01-23T02:48:25.448Z,96.12
2018-01-23T02:49:25.427Z,96.60
2018-01-23T02:50:25.401Z,96.60
2018-01-23T02:51:25.367Z,97.07
2018-01-23T02:52:25.329Z,97.17
2018-01-23T02:53:25.298Z,96.79
2018-01-23T02:54:25.291Z,97.36
2018-01-23T02:55:25.257Z,97.27
2018-01-23T02:56:25.215Z,97.64
2018-01-23T02:57:25.198Z,97.83
2018-01-23T02:58:25.181Z,97.17
2018-01-23T02:59:25.165Z,96.98
2018-01-23T03:00:25.115Z,96.79
2018-01-23T03:01:25.109Z,97.45
2018-01-23T03:02:25.066Z,97.07
2018-01-23T03:03:25.045Z,97.36
2018-01-23T03:04:25.020Z,96.88
2018-01-23T03:05:24.976Z,97.27
2018-01-23T03:06:24.960Z,97.64
2018-01-23T03:07:24.925Z,97.92
2018-01-23T03:08:24.889Z,97.92
2018-01-23T03:09:24.895Z,97.36
2018-01-23T03:10:24.844Z,96.88
2018-01-23T03:11:24.814Z,97.36
2018-01-23T03:12:24.791Z,96.88
2018-01-23T03:13:24.762Z,97.17
2018-01-23T03:14:24.769Z,97.36
2018-01-23T03:15:24.748Z,97.36
2018-01-23T03:16:24.674Z,97.27
2018-01-23T03:17:24.652Z,97.27
2018-01-23T03:18:24.622Z,97.07
2018-01-23T03:19:24.596Z,96.98
2018-01-23T03:20:24.584Z,96.88
2018-01-23T03:21:24.572Z,97.17
2018-01-23T03:22:24.527Z,97.07
2018-01-23T03:23:24.491Z,97.07
2018-01-23T03:24:24.479Z,97.92
2018-01-23T03:25:24.457Z,97.83
2018-01-23T03:26:24.415Z,97.74
2018-01-23T03:27:24.389Z,98.02
2018-01-23T03:28:24.358Z,98.31
2018-01-23T03:29:24.336Z,98.59
2018-01-23T03:30:24.303Z,98.31
2018-01-23T03:31:24.280Z,98.59
2018-01-23T03:32:24.252Z,98.59
2018-01-23T03:33:24.240Z,98.59
2018-01-23T03:34:24.191Z,98.21
2018-01-23T03:35:24.158Z,98.21
2018-01-23T03:36:24.158Z,98.40
2018-01-23T03:37:25.030Z,98.31
2018-01-23T03:38:24.082Z,97.74
2018-01-23T03:39:24.073Z,97.74
2018-01-23T03:40:24.027Z,97.55
2018-01-23T03:41:23.997Z,97.64
2018-01-23T03:42:23.970Z,97.55
2018-01-23T03:43:23.961Z,97.55
2018-01-23T03:44:23.927Z,97.74
2018-01-23T03:45:23.919Z,97.17
2018-01-23T03:46:23.859Z,97.64
2018-01-23T03:47:23.831Z,97.64
2018-01-23T03:48:23.803Z,97.55
2018-01-23T03:49:23.792Z,97.64
2018-01-23T03:50:23.749Z,97.74
2018-01-23T03:51:23.721Z,97.64
2018-01-23T03:52:23.703Z,97.83
2018-01-23T03:53:23.690Z,97.27
2018-01-23T03:54:23.661Z,97.83
2018-01-23T03:55:23.611Z,97.27
2018-01-23T03:56:23.594Z,96.98
2018-01-23T03:57:23.583Z,96.88
2018-01-23T03:58:23.530Z,96.69
2018-01-23T03:59:23.522Z,96.79
2018-01-23T04:00:23.488Z,97.17
2018-01-23T04:01:23.472Z,97.36
2018-01-23T04:02:23.415Z,96.60
2018-01-23T04:03:23.400Z,97.07
2018-01-23T04:04:23.385Z,96.98
2018-01-23T04:05:23.352Z,97.74
2018-01-23T04:06:23.321Z,97.74
2018-01-23T04:07:23.285Z,97.45
2018-01-23T04:08:23.266Z,97.64
2018-01-23T04:09:23.231Z,98.40
2018-01-23T04:10:23.207Z,98.40
2018-01-23T04:11:23.208Z,98.31
2018-01-23T04:12:23.166Z,97.55
2018-01-23T04:13:23.138Z,98.59
2018-01-23T04:14:23.110Z,98.69
2018-01-23T04:15:23.069Z,97.55
2018-01-23T04:16:23.038Z,97.74
2018-01-23T04:17:23.038Z,97.45
2018-01-23T04:18:22.981Z,98.02
2018-01-23T04:19:22.949Z,98.40
2018-01-23T04:20:22.935Z,98.50
2018-01-23T04:21:22.899Z,98.50
2018-01-23T04:22:22.874Z,98.40
2018-01-23T04:23:22.843Z,98.79
2018-01-23T04:24:22.856Z,98.40
2018-01-23T04:25:22.787Z,98.40
2018-01-23T04:26:22.790Z,98.21
2018-01-23T04:27:22.744Z,98.21
2018-01-23T04:28:22.709Z,98.31
2018-01-23T04:29:22.675Z,97.64
2018-01-23T04:30:22.656Z,98.40
2018-01-23T04:31:22.627Z,98.50
2018-01-23T04:32:22.601Z,98.12
2018-01-23T04:33:22.577Z,98.31
2018-01-23T04:34:22.568Z,98.59
2018-01-23T04:35:22.516Z,98.12
2018-01-23T04:36:22.490Z,98.40
2018-01-23T04:37:22.476Z,98.50
2018-01-23T04:38:22.437Z,98.50
2018-01-23T04:39:22.405Z,98.31
2018-01-23T04:40:22.372Z,98.40
2018-01-23T04:41:22.355Z,98.50
2018-01-23T04:42:22.315Z,98.59
2018-01-23T04:43:22.290Z,98.40
2018-01-23T04:44:22.264Z,97.64
2018-01-23T04:45:22.269Z,98.40
2018-01-23T04:46:22.235Z,97.27
2018-01-23T04:47:22.205Z,98.31
2018-01-23T04:48:22.162Z,98.50
2018-01-23T04:49:22.127Z,98.50
2018-01-23T04:50:22.106Z,98.69
2018-01-23T04:51:22.077Z,98.88
2018-01-23T04:52:22.048Z,98.40
2018-01-23T04:53:22.015Z,98.21
2018-01-23T04:54:21.997Z,98.59
2018-01-23T04:55:21.974Z,98.59
2018-01-23T04:56:21.931Z,98.79
2018-01-23T04:57:21.911Z,98.59
2018-01-23T04:58:21.897Z,98.79
2018-01-23T04:59:21.860Z,98.12
2018-01-23T05:00:21.840Z,98.02
2018-01-23T05:01:21.815Z,99.07
2018-01-23T05:02:21.775Z,98.50
2018-01-23T05:03:21.763Z,98.69
2018-01-23T05:04:21.715Z,98.88
2018-01-23T05:05:21.690Z,98.40
2018-01-23T05:06:21.699Z,98.97
2018-01-23T05:07:21.642Z,98.88
2018-01-23T05:08:21.633Z,98.50
2018-01-23T05:09:21.596Z,98.79
2018-01-23T05:10:21.561Z,99.07
2018-01-23T05:11:21.539Z,98.69
2018-01-23T05:12:21.514Z,99.44
2018-01-23T05:13:21.483Z,99.07
2018-01-23T05:14:21.470Z,99.83
2018-01-23T05:15:21.429Z,99.99
2018-01-23T05:16:21.401Z,99.99
2018-01-23T05:17:21.369Z,99.99
2018-01-23T05:18:21.347Z,99.99
2018-01-23T05:19:21.306Z,99.99
2018-01-23T05:20:21.283Z,99.92
2018-01-23T05:21:21.260Z,99.44
2018-01-23T05:22:21.233Z,99.99
2018-01-23T05:23:21.207Z,99.99
2018-01-23T05:24:21.211Z,99.99
2018-01-23T05:25:21.148Z,99.99
2018-01-23T05:26:21.145Z,99.99
2018-01-23T05:27:21.096Z,99.99
2018-01-23T05:28:21.071Z,99.99
2018-01-23T05:29:21.032Z,99.99
2018-01-23T05:30:21.007Z,99.99
2018-01-23T05:31:20.980Z,99.99
2018-01-23T05:32:20.964Z,99.99
2018-01-23T05:33:20.944Z,99.99
2018-01-23T05:34:20.893Z,99.99
2018-01-23T05:35:20.876Z,99.99
2018-01-23T05:36:20.859Z,99.99
2018-01-23T05:37:20.827Z,99.99
2018-01-23T05:38:20.792Z,99.99
2018-01-23T05:39:20.769Z,99.99
2018-01-23T05:40:20.741Z,99.99
2018-01-23T05:41:20.718Z,99.99
2018-01-23T05:42:20.694Z,99.99
2018-01-23T05:43:20.665Z,99.99
2018-01-23T05:44:20.626Z,99.99
2018-01-23T05:45:20.604Z,99.99
2018-01-23T05:46:20.567Z,99.99
2018-01-23T05:47:20.541Z,99.99
2018-01-23T05:48:20.527Z,99.99
2018-01-23T05:49:20.508Z,99.99
2018-01-23T05:50:20.463Z,99.99
2018-01-23T05:51:20.437Z,99.99
2018-01-23T05:52:20.423Z,99.99
2018-01-23T05:53:20.407Z,99.99
2018-01-23T05:54:20.379Z,99.99
2018-01-23T05:55:20.335Z,99.99
2018-01-23T05:56:20.312Z,99.99
2018-01-23T05:57:20.274Z,99.99
2018-01-23T05:58:20.245Z,99.99
2018-01-23T05:59:20.235Z,99.99
2018-01-23T06:00:20.205Z,99.99
2018-01-23T06:01:20.168Z,99.99
2018-01-23T06:02:20.132Z,99.99
2018-01-23T06:03:20.125Z,99.99
2018-01-23T06:04:20.073Z,99.99
2018-01-23T06:05:20.052Z,99.99
2018-01-23T06:06:20.087Z,99.99
2018-01-23T06:07:19.995Z,99.99
2018-01-23T06:08:19.993Z,99.99
2018-01-23T06:09:19.957Z,99.99
2018-01-23T06:10:19.920Z,99.99
2018-01-23T06:11:19.882Z,99.99
2018-01-23T06:12:19.876Z,99.99
2018-01-23T06:13:19.846Z,99.99
2018-01-23T06:14:19.839Z,99.99
2018-01-23T06:15:20.481Z,99.99
2018-01-23T06:16:19.776Z,99.99
2018-01-23T06:17:19.721Z,99.99
2018-01-23T06:18:19.715Z,99.99
2018-01-23T06:19:19.670Z,99.99
2018-01-23T06:20:19.643Z,99.99
2018-01-23T06:21:19.614Z,99.99
2018-01-23T06:22:19.604Z,99.99
2018-01-23T06:23:19.559Z,99.99
2018-01-23T06:24:19.546Z,99.99
2018-01-23T06:25:19.523Z,99.99
2018-01-23T06:26:19.486Z,99.99
2018-01-23T06:27:19.478Z,99.99
2018-01-23T06:28:19.433Z,99.99
2018-01-23T06:29:19.414Z,99.99
2018-01-23T06:30:19.375Z,99.99
2018-01-23T06:31:19.348Z,99.99
2018-01-23T06:32:19.318Z,99.99
2018-01-23T06:33:19.285Z,99.99
2018-01-23T06:34:19.252Z,99.99
2018-01-23T06:35:19.230Z,99.99
2018-01-23T06:36:19.220Z,99.99
2018-01-23T06:37:19.181Z,99.99
2018-01-23T06:38:19.151Z,99.99
2018-01-23T06:39:19.125Z,99.99
2018-01-23T06:40:19.094Z,99.99
2018-01-23T06:41:19.066Z,99.99
2018-01-23T06:42:19.048Z,99.99
2018-01-23T06:43:19.027Z,99.99
2018-01-23T06:44:18.991Z,99.99
2018-01-23T06:45:18.955Z,99.99
2018-01-23T06:46:18.941Z,99.99
2018-01-23T06:47:32.712Z,99.99
2018-01-23T06:48:34.150Z,99.99
2018-01-23T06:49:18.858Z,99.99
2018-01-23T06:50:18.972Z,99.99
2018-01-23T06:51:19.236Z,99.99
2018-01-23T06:52:18.773Z,99.99
2018-01-23T06:53:18.747Z,99.99
2018-01-23T06:54:18.709Z,99.99
2018-01-23T06:55:18.696Z,99.99
2018-01-23T06:56:18.653Z,99.99
2018-01-23T06:57:18.655Z,99.99
2018-01-23T06:58:18.660Z,99.99
2018-01-23T06:59:18.596Z,99.99
2018-01-23T07:00:18.559Z,99.99
2018-01-23T07:01:18.543Z,99.99
2018-01-23T07:02:18.990Z,99.99
2018-01-23T07:03:18.465Z,99.99
2018-01-23T07:04:18.445Z,99.99
2018-01-23T07:05:18.420Z,99.99
2018-01-23T07:06:18.397Z,99.99
2018-01-23T07:07:18.356Z,99.99
2018-01-23T07:08:18.341Z,99.99
2018-01-23T07:09:18.312Z,99.99
2018-01-23T07:10:18.282Z,99.99
2018-01-23T07:11:18.255Z,99.99
2018-01-23T07:12:18.235Z,99.99
2018-01-23T07:13:18.200Z,99.99
2018-01-23T07:14:18.170Z,99.99
2018-01-23T07:15:18.141Z,99.99
2018-01-23T07:16:18.120Z,99.99
2018-01-23T07:17:18.099Z,99.99
2018-01-23T07:18:18.068Z,99.99
2018-01-23T07:19:18.032Z,99.99
2018-01-23T07:20:18.000Z,99.99
2018-01-23T07:21:17.994Z,99.99
2018-01-23T07:22:18.550Z,99.99
2018-01-23T07:23:17.943Z,99.99
2018-01-23T07:24:17.906Z,99.99
2018-01-23T07:25:17.866Z,99.99
2018-01-23T07:26:17.836Z,99.99
2018-01-23T07:27:17.816Z,99.99
2018-01-23T07:28:17.787Z,99.99
2018-01-23T07:29:17.758Z,99.99
2018-01-23T07:30:20.314Z,99.99
2018-01-23T07:31:18.376Z,99.99
2018-01-23T07:32:17.676Z,99.99
2018-01-23T07:33:19.235Z,99.99
2018-01-23T07:34:18.057Z,99.99
2018-01-23T07:35:17.620Z,99.99
2018-01-23T07:36:17.581Z,99.99
2018-01-23T07:37:17.557Z,99.99
2018-01-23T07:38:17.542Z,99.99
2018-01-23T07:39:17.511Z,99.99
2018-01-23T07:40:17.469Z,99.99
2018-01-23T07:41:17.444Z,99.99
2018-01-23T07:42:17.423Z,99.99
2018-01-23T07:43:17.387Z,99.99
2018-01-23T07:44:17.353Z,99.99
2018-01-23T07:45:17.325Z,99.99
2018-01-23T07:46:17.288Z,99.99
2018-01-23T07:47:17.265Z,99.99
2018-01-23T07:48:17.255Z,99.99
2018-01-23T07:49:17.220Z,99.99
2018-01-23T07:50:17.194Z,99.99
2018-01-23T07:51:17.156Z,99.99
2018-01-23T07:52:17.135Z,99.99
2018-01-23T07:53:17.154Z,99.99
2018-01-23T07:54:17.077Z,99.99
2018-01-23T07:55:17.048Z,99.99
2018-01-23T07:56:17.050Z,99.99
2018-01-23T07:57:17.031Z,99.99
2018-01-23T07:58:16.977Z,99.99
2018-01-23T07:59:16.946Z,99.99
2018-01-23T08:00:16.911Z,99.99
2018-01-23T08:01:16.889Z,99.99
2018-01-23T08:02:16.863Z,99.99
2018-01-23T08:03:16.853Z,99.99
2018-01-23T08:04:16.834Z,99.99
2018-01-23T08:05:16.781Z,99.99
2018-01-23T08:06:16.749Z,99.99
2018-01-23T08:07:16.747Z,99.99
2018-01-23T08:08:16.691Z,99.99
2018-01-23T08:09:16.672Z,99.99
2018-01-23T08:10:16.658Z,99.99
2018-01-23T08:11:16.612Z,99.99
2018-01-23T08:12:16.645Z,99.35
2018-01-23T08:13:16.577Z,99.54
2018-01-23T08:14:16.547Z,99.07
2018-01-23T08:15:16.514Z,98.31
2018-01-23T08:16:16.504Z,98.59
2018-01-23T08:17:16.453Z,98.97
2018-01-23T08:18:16.426Z,98.69
2018-01-23T08:19:16.403Z,98.50
2018-01-23T08:20:16.395Z,98.50
2018-01-23T08:21:16.344Z,97.92
2018-01-23T08:22:16.326Z,97.55
2018-01-23T08:23:16.287Z,97.83
2018-01-23T08:24:16.267Z,98.02
2018-01-23T08:25:16.238Z,98.79
2018-01-23T08:26:16.214Z,98.31
2018-01-23T08:27:16.184Z,97.74
2018-01-23T08:28:16.163Z,98.50
2018-01-23T08:29:16.153Z,97.74
2018-01-23T08:30:16.114Z,96.84
2018-01-23T08:31:16.102Z,97.31
2018-01-23T08:32:16.484Z,96.93
2018-01-23T08:33:16.121Z,97.41
2018-01-23T08:34:15.992Z,97.41
2018-01-23T08:35:15.961Z,96.84
2018-01-23T08:36:16.014Z,96.08
2018-01-23T08:37:15.918Z,95.89
2018-01-23T08:38:15.893Z,96.26
2018-01-23T08:39:15.852Z,96.36
2018-01-23T08:40:15.841Z,95.79
2018-01-23T08:41:15.797Z,95.79
2018-01-23T08:42:15.797Z,96.08
2018-01-23T08:43:15.758Z,96.26
2018-01-23T08:44:15.746Z,96.26
2018-01-23T08:45:16.509Z,96.36
2018-01-23T08:46:15.674Z,95.98
2018-01-23T08:47:15.666Z,95.32
2018-01-23T08:48:15.623Z,95.12
2018-01-23T08:49:15.597Z,94.89
2018-01-23T08:50:15.574Z,94.84
2018-01-23T08:51:15.541Z,94.74
2018-01-23T08:52:15.513Z,95.32
2018-01-23T08:53:15.517Z,95.41
2018-01-23T08:54:15.473Z,95.03
2018-01-23T08:55:15.442Z,95.60
2018-01-23T08:56:15.406Z,96.08
2018-01-23T08:57:15.384Z,96.26
2018-01-23T08:58:15.353Z,97.03
2018-01-23T08:59:15.348Z,96.26
2018-01-23T09:00:15.308Z,96.36
2018-01-23T09:01:15.285Z,95.89
2018-01-23T09:02:15.250Z,96.36
2018-01-23T09:03:15.218Z,95.89
2018-01-23T09:04:15.204Z,95.98
2018-01-23T09:05:15.181Z,95.60
2018-01-23T09:06:15.141Z,94.93
2018-01-23T09:07:15.118Z,94.84
2018-01-23T09:08:15.087Z,95.12
2018-01-23T09:09:15.087Z,95.41
2018-01-23T09:10:15.033Z,95.03
2018-01-23T09:11:15.005Z,95.22
2018-01-23T09:12:14.985Z,95.51
2018-01-23T09:13:14.976Z,95.51
2018-01-23T09:14:14.923Z,95.32
2018-01-23T09:15:14.909Z,95.51
2018-01-23T09:16:14.894Z,96.26
2018-01-23T09:17:14.877Z,95.89
2018-01-23T09:18:14.823Z,95.51
2018-01-23T09:19:14.804Z,95.22
2018-01-23T09:20:14.771Z,95.03
2018-01-23T09:21:14.745Z,94.60
2018-01-23T09:22:14.726Z,94.27
2018-01-23T09:23:14.712Z,94.56
2018-01-23T09:24:14.662Z,94.18
2018-01-23T09:25:14.644Z,94.70
2018-01-23T09:26:14.610Z,94.42
2018-01-23T09:27:14.595Z,94.70
2018-01-23T09:28:14.594Z,94.22
2018-01-23T09:29:14.547Z,94.13
2018-01-23T09:30:14.505Z,93.84
2018-01-23T09:31:14.491Z,94.03
2018-01-23T09:32:14.461Z,93.94
2018-01-23T09:33:14.435Z,94.32
2018-01-23T09:34:14.405Z,93.75
2018-01-23T09:35:14.388Z,94.03
2018-01-23T09:36:14.362Z,93.65
2018-01-23T09:37:14.325Z,93.55
2018-01-23T09:38:14.293Z,94.13
2018-01-23T09:39:14.289Z,93.75
2018-01-23T09:40:14.240Z,93.94
2018-01-23T09:41:14.224Z,94.03
2018-01-23T09:42:14.191Z,93.37
2018-01-23T09:43:14.169Z,93.60
2018-01-23T09:44:14.141Z,94.27
2018-01-23T09:45:14.106Z,94.18
2018-01-23T09:46:14.086Z,94.08
2018-01-23T09:47:14.068Z,94.65
2018-01-23T09:48:14.036Z,95.12
2018-01-23T09:49:14.007Z,94.27
2018-01-23T09:50:13.988Z,94.46
2018-01-23T09:51:13.977Z,94.74
2018-01-23T09:52:13.938Z,94.42
2018-01-23T09:53:13.923Z,94.46
2018-01-23T09:54:13.886Z,94.13
2018-01-23T09:55:13.885Z,93.75
2018-01-23T09:56:13.842Z,93.84
2018-01-23T09:57:13.807Z,93.55
2018-01-23T09:58:13.778Z,93.18
2018-01-23T09:59:13.757Z,93.18
2018-01-23T10:00:13.723Z,93.08
2018-01-23T10:01:13.690Z,93.75
2018-01-23T10:02:13.679Z,92.70
2018-01-23T10:03:13.642Z,93.37
2018-01-23T10:04:13.617Z,92.99
2018-01-23T10:05:13.589Z,93.46
2018-01-23T10:06:13.574Z,93.18
2018-01-23T10:07:13.540Z,93.37
2018-01-23T10:08:13.538Z,92.13
2018-01-23T10:09:13.485Z,92.32
2018-01-23T10:10:13.474Z,92.80
2018-01-23T10:11:13.451Z,92.32
2018-01-23T10:12:13.415Z,92.99
2018-01-23T10:13:13.381Z,92.61
2018-01-23T10:14:13.349Z,92.32
2018-01-23T10:15:13.348Z,92.61
2018-01-23T10:16:13.310Z,92.32
2018-01-23T10:17:13.272Z,91.56
2018-01-23T10:18:13.267Z,91.37
2018-01-23T10:19:13.240Z,91.18
2018-01-23T10:20:13.200Z,91.28
2018-01-23T10:21:13.174Z,91.37
2018-01-23T10:22:13.153Z,91.47
2018-01-23T10:23:13.125Z,91.37
2018-01-23T10:24:13.096Z,91.56
2018-01-23T10:25:13.067Z,91.56
2018-01-23T10:26:13.063Z,92.51
2018-01-23T10:27:13.031Z,91.66
2018-01-23T10:28:12.993Z,91.37
2018-01-23T10:29:12.964Z,91.56
2018-01-23T10:30:12.952Z,91.18
2018-01-23T10:31:12.943Z,91.18
2018-01-23T10:32:12.899Z,91.08
2018-01-23T10:33:12.856Z,90.70
2018-01-23T10:34:12.835Z,90.61
2018-01-23T10:35:12.837Z,90.23
2018-01-23T10:36:12.798Z,90.56
2018-01-23T10:37:12.762Z,90.04
2018-01-23T10:38:12.751Z,89.99
2018-01-23T10:39:12.698Z,90.66
2018-01-23T10:40:12.686Z,90.08
2018-01-23T10:41:12.662Z,90.23
2018-01-23T10:42:12.629Z,90.18
2018-01-23T10:43:12.598Z,90.08
2018-01-23T10:44:12.573Z,90.04
2018-01-23T10:45:12.551Z,90.52
2018-01-23T10:46:12.528Z,90.14
2018-01-23T10:47:12.511Z,90.33
2018-01-23T10:48:12.490Z,90.23
2018-01-23T10:49:12.447Z,90.61
2018-01-23T10:50:12.418Z,90.23
2018-01-23T10:51:12.405Z,89.85
2018-01-23T10:52:12.380Z,90.08
2018-01-23T10:53:12.341Z,89.80
2018-01-23T10:54:12.314Z,90.66
2018-01-23T10:55:12.283Z,90.37
2018-01-23T10:56:12.310Z,89.42
2018-01-23T10:57:12.239Z,88.94
2018-01-23T10:58:12.216Z,89.32
2018-01-23T10:59:12.196Z,88.66
2018-01-23T11:00:12.183Z,88.56
2018-01-23T11:01:12.148Z,88.37
2018-01-23T11:02:12.126Z,88.46
2018-01-23T11:03:12.086Z,88.56
2018-01-23T11:04:12.060Z,88.56
2018-01-23T11:05:12.038Z,88.66
2018-01-23T11:06:12.009Z,89.23
2018-01-23T11:07:11.990Z,89.23
2018-01-23T11:08:11.959Z,89.14
2018-01-23T11:09:11.937Z,89.04
2018-01-23T11:10:11.895Z,88.85
2018-01-23T11:11:11.877Z,89.32
2018-01-23T11:12:11.858Z,88.94
2018-01-23T11:13:11.838Z,89.42
2018-01-23T11:14:11.795Z,89.32
2018-01-23T11:15:11.774Z,89.51
2018-01-23T11:16:11.760Z,89.80
2018-01-23T11:17:11.723Z,89.70
2018-01-23T11:18:11.692Z,89.51
2018-01-23T11:19:11.669Z,88.94
2018-01-23T11:20:11.653Z,89.14
2018-01-23T11:21:11.614Z,88.75
2018-01-23T11:22:11.592Z,88.94
2018-01-23T11:23:11.578Z,88.18
2018-01-23T11:24:11.537Z,88.28
2018-01-23T11:25:11.515Z,88.75
2018-01-23T11:26:11.526Z,88.23
2018-01-23T11:27:11.484Z,88.46
2018-01-23T11:28:11.436Z,89.09
2018-01-23T11:29:11.415Z,89.09
2018-01-23T11:30:11.402Z,89.04
2018-01-23T11:31:11.361Z,88.85
2018-01-23T11:32:11.334Z,89.32
2018-01-23T11:33:11.311Z,88.75
2018-01-23T11:34:11.300Z,88.94
2018-01-23T11:35:11.269Z,89.04
2018-01-23T11:36:11.230Z,89.32
2018-01-23T11:37:11.210Z,89.04
2018-01-23T11:38:11.192Z,88.94
2018-01-23T11:39:11.178Z,88.66
2018-01-23T11:40:11.151Z,88.09
2018-01-23T11:41:11.104Z,87.42
2018-01-23T11:42:11.082Z,88.46
2018-01-23T11:43:11.059Z,88.46
2018-01-23T11:44:11.038Z,88.56
2018-01-23T11:45:11.006Z,88.37
2018-01-23T11:46:10.977Z,88.28
2018-01-23T11:47:10.956Z,88.46
2018-01-23T11:48:10.922Z,88.28
2018-01-23T11:49:10.899Z,88.28
2018-01-23T11:50:10.869Z,88.28
2018-01-23T11:51:10.882Z,88.28
2018-01-23T11:52:10.874Z,87.80
2018-01-23T11:53:10.811Z,87.42
2018-01-23T11:54:10.788Z,86.85
2018-01-23T11:55:10.756Z,87.32
2018-01-23T11:56:10.724Z,87.52
2018-01-23T11:57:10.703Z,87.61
2018-01-23T11:58:10.675Z,87.56
2018-01-23T11:59:10.636Z,87.08
2018-01-23T12:00:10.636Z,86.80
2018-01-23T12:01:10.587Z,86.51
2018-01-23T12:02:10.572Z,85.85
2018-01-23T12:03:10.548Z,85.61
2018-01-23T12:04:10.544Z,85.71
2018-01-23T12:05:10.619Z,85.61
2018-01-23T12:06:10.465Z,86.28
2018-01-23T12:07:10.442Z,86.47
2018-01-23T12:08:10.415Z,86.38
2018-01-23T12:09:10.405Z,87.04
2018-01-23T12:10:10.367Z,87.04
2018-01-23T12:11:10.358Z,87.46
2018-01-23T12:12:10.338Z,87.27
2018-01-23T12:13:10.304Z,86.13
2018-01-23T12:14:10.256Z,85.94
2018-01-23T12:15:10.251Z,85.85
2018-01-23T12:16:10.238Z,85.56
2018-01-23T12:17:10.203Z,85.42
2018-01-23T12:18:10.155Z,85.80
2018-01-23T12:19:10.148Z,86.42
2018-01-23T12:20:10.108Z,86.22
2018-01-23T12:21:10.089Z,86.13
2018-01-23T12:22:10.080Z,85.66
2018-01-23T12:23:10.039Z,85.75
2018-01-23T12:24:10.015Z,84.80
2018-01-23T12:25:09.985Z,85.75
2018-01-23T12:26:09.997Z,85.28
2018-01-23T12:27:09.930Z,84.61
2018-01-23T12:28:09.920Z,84.52
2018-01-23T12:29:09.882Z,84.99
2018-01-23T12:30:09.849Z,85.28
2018-01-23T12:31:09.860Z,85.28
2018-01-23T12:32:09.822Z,84.99
2018-01-23T12:33:09.775Z,84.99
2018-01-23T12:34:09.759Z,84.61
2018-01-23T12:35:09.748Z,84.52
2018-01-23T12:36:09.706Z,84.13
2018-01-23T12:37:09.680Z,84.61
2018-01-23T12:38:09.647Z,84.52
2018-01-23T12:39:09.632Z,84.70
2018-01-23T12:40:09.596Z,84.42
2018-01-23T12:41:09.584Z,84.52
2018-01-23T12:42:09.566Z,84.99
2018-01-23T12:43:09.521Z,84.80
2018-01-23T12:44:09.510Z,85.37
2018-01-23T12:45:09.512Z,85.37
2018-01-23T12:46:09.454Z,84.61
2018-01-23T12:47:09.422Z,84.70
2018-01-23T12:48:09.398Z,84.80
2018-01-23T12:49:09.371Z,85.37
2018-01-23T12:50:09.351Z,85.47
2018-01-23T12:51:09.345Z,85.47
2018-01-23T12:52:09.309Z,86.04